x

Bay Of Campeche - 214 Nm Ne Of Veracruz, Mx (42055) Wave Buoy

4:50pm - Fri 23rd Jun 2017 All times are UTC.

  • Sig Wave height 5.2ft
  • Swell Direction
  • Peak Period 6s
  • Average Period 5s
  • Wind
    22mph, 27mph gusts
  • Sea Temp 84°f
  • Air Temp 84°f
  • Sea Pressure 1009.7mb

More Historic Weather Station data

Upgrade to MSW Pro to gain access to the past 30 days of data for over 8000 Wavebouys and Weather Stations around the globe.

Join Pro

Comparision Forecast

View Surf forecast
   
Fri 06/23 4:50pm 5ft 6s 5s 22 27 mph 1009.7mb 84f 84f
3:50pm 5ft 6s 5s 22 25 mph 1009.7mb 84f 84f
2:50pm 4.5ft 5s 5s 20 25 mph 1009.1mb 84f 85f
1:50pm 4.5ft 5s 5s 22 25 mph 1008.8mb 84f 85f
12:50pm 4ft 6s 5s 18 22 mph 1008.5mb 84f 85f
11:50am 4ft 7s 5s 20 22 mph 1007.8mb 84f 85f
10:50am 3.5ft 7s 5s 18 22 mph 1007.7mb 84f 85f
9:50am 4ft 6s 5s 13 18 mph 1007.9mb 84f 84f
8:50am 4.5ft 6s 5s 16 18 mph 1007.8mb 84f 84f
7:50am 4.5ft 6s 5s 16 18 mph 1008.4mb 84f 84f
6:50am 4.5ft 6s 5s 13 16 mph 1009.1mb 84f 84f
5:50am 4.5ft 6s 5s 16 18 mph 1009.6mb 84f 84f
4:50am 4.5ft 8s 5s 16 18 mph 1009.8mb 84f 84f
3:50am 4ft 7s 5s 16 20 mph 1009.4mb 84f 84f
2:50am 3.5ft 8s 5s 18 22 mph 1008.8mb 84f 84f
1:50am 3.5ft 8s 5s 16 18 mph 1008.1mb 84f 84f
12:50am 3ft 8s 5s 13 16 mph 1007.9mb 84f 84f
Thu 06/22 11:50pm 3ft 9s 5s 11 13 mph 1007.7mb 85f 84f
10:50pm 2.5ft 9s 5s 11 13 mph 1007.7mb 85f 84f
9:50pm 3ft 8s 5s 9 11 mph 1007.9mb 85f 85f
8:50pm 3.5ft 8s 5s 11 13 mph 1008.2mb 84f 84f
7:50pm 3.5ft 8s 5s 11 13 mph 1008.9mb 84f 84f
6:50pm 3.5ft 8s 5s 13 16 mph 1009.4mb 84f 84f
5:50pm 3.5ft 8s 5s 13 18 mph 1009.6mb 84f 84f
4:50pm 4ft 9s 6s 16 18 mph 1009.6mb 84f 84f
3:50pm 4.5ft 8s 6s 13 16 mph 1009.7mb 84f 84f
2:50pm 4.5ft 9s 6s 13 16 mph 1009.4mb 84f 84f
1:50pm 4.5ft 8s 6s 13 16 mph 1009mb 84f 84f
12:50pm 4.5ft 8s 6s 13 16 mph 1008.3mb 84f 84f
11:50am 4.5ft 9s 7s 13 18 mph 1007.9mb 84f 83f
10:50am 5ft 9s 6s 13 16 mph 1007.5mb 84f 83f
9:50am 5ft 9s 7s 16 18 mph 1007.2mb 84f 83f
8:50am 4.5ft 9s 6s 16 18 mph 1007.1mb 84f 83f
7:50am 5ft 9s 7s 13 18 mph 1007.4mb 84f 83f
6:50am 4.5ft 8s 7s 13 16 mph 1008mb 84f 83f
5:50am 5ft 9s 7s 11 13 mph 1008.6mb 84f 83f
4:50am 4.5ft 10s 7s 7 9 mph 1008.9mb 84f 83f
3:50am 4.5ft 8s 6s 2 4 mph 1008.7mb 84f 83f
2:50am 4.5ft 8s 6s 2 4 mph 1008.4mb 85f 83f
1:50am 4.5ft 9s 6s 2 4 mph 1008.1mb 85f 83f
12:50am 4.5ft 9s 6s  -  2 mph 1007.7mb 85f 84f
Wed 06/21 11:50pm 4.5ft 10s 6s 2 4 mph 1007.4mb 85f 85f
10:50pm 5ft 8s 6s 4 7 mph 1006.7mb 85f 85f
9:50pm 5ft 10s 6s 7 7 mph 1006.6mb 85f 84f
8:50pm 5ft 9s 6s 9 11 mph 1006.8mb 85f 84f
7:50pm 5ft 9s 6s 11 13 mph 1007.5mb 84f 84f
6:50pm 5ft 8s 6s 9 11 mph 1007.9mb 84f 84f
5:50pm 5ft 8s 6s 11 13 mph 1008.4mb 84f 83f
4:50pm 5ft 8s 6s 11 13 mph 1008.2mb 84f 83f
3:50pm 5ft 7s 6s 13 16 mph 1008mb 83f 83f
2:50pm 5ft 8s 6s 13 16 mph 1007.7mb 83f 83f
1:50pm 5.5ft 8s 6s 16 18 mph 1007.5mb 83f 83f
12:50pm 5.5ft 9s 6s 13 16 mph 1007.4mb 83f 83f
11:50am 5ft 8s 6s 13 16 mph 1006.6mb 83f 83f
10:50am 5.5ft 9s 6s 11 11 mph 1006mb 83f 83f
9:50am 5.5ft 8s 6s 11 11 mph 1006.1mb 83f 83f
8:50am 5.5ft 7s 6s 9 11 mph 1006mb 83f 82f
7:50am 5.5ft 7s 6s 11 13 mph 1006.1mb 83f 83f
6:50am 5.5ft 7s 6s 11 13 mph 1006.9mb 83f 83f
5:50am 6ft 7s 6s 11 13 mph 1007.8mb 83f 83f
4:50am 6ft 8s 6s 16 18 mph 1008mb 83f 83f
2:50am 7ft 8s 6s 13 16 mph 1007.8mb 83f 82f
1:50am 7ft 8s 6s 18 20 mph 1007.1mb 84f 83f
12:50am 7ft 7s 6s 20 25 mph 1006.5mb 84f 84f
Tue 06/20 11:50pm 7ft 8s 6s 22 27 mph 1005.8mb 84f 84f
10:50pm 7ft 7s  -  22 27 mph 1005.5mb 84f 83f
9:50pm 6.5ft 7s 5s 25 27 mph 1005.7mb 84f 84f
7:50pm 7ft 8s 5s 22 27 mph 1006.9mb 84f 83f
6:50pm 6.5ft 8s 5s 22 31 mph 1007.5mb 84f 80f
5:50pm 6ft 7s 5s 18 22 mph 1008.2mb 84f 83f
4:50pm 6ft 7s 5s 25 29 mph 1008.2mb 84f 83f
3:50pm 5.5ft 7s 5s 22 27 mph 1008.1mb 84f 84f
2:50pm 5.5ft 8s 5s 22 25 mph 1007.9mb 84f 83f
1:50pm 5ft 8s 5s 20 29 mph 1007.9mb 84f 82f
12:50pm 5ft 7s 5s 18 22 mph 1007.5mb 84f 83f
11:50am 5ft 6s 5s 20 22 mph 1007.1mb 84f 83f
10:50am 5.5ft 7s 5s 18 22 mph 1006.7mb 84f 83f
9:50am 5.5ft 8s 5s 18 22 mph 1006.2mb 84f 83f
8:50am 5ft 7s 5s 18 22 mph 1006.6mb 84f 83f
7:50am 5.5ft 8s 5s 18 20 mph 1007.3mb 84f 83f
6:50am 5ft 7s 5s 16 18 mph 1008mb 84f 83f
5:50am 5.5ft 6s 5s 16 20 mph 1008.9mb 84f 83f
4:50am 5ft 7s 5s 16 18 mph 1009.4mb 84f 84f
3:50am 5ft 7s 5s 18 20 mph 1009mb 84f 84f
2:50am 5ft 7s 5s 20 22 mph 1008.5mb 84f 84f
1:50am 5ft 7s 5s 20 22 mph 1008.1mb 84f 84f
12:50am 5ft 7s 5s 20 22 mph 1007.7mb 84f 84f
Mon 06/19 11:50pm 4.5ft 7s 5s 20 25 mph 1007.3mb 84f 84f
10:50pm 4.5ft 7s 5s 20 25 mph 1007mb 84f 84f
9:50pm 4ft 6s 5s 18 22 mph 1007.5mb 84f 84f
8:50pm 4ft 6s 5s 18 22 mph 1008.1mb 84f 84f
7:50pm 4ft 7s 5s 20 22 mph 1008.5mb 84f 83f